Startpagina
METAR-TAF:

METAR-TAF

Vliegvelden :

Alpnach, Zwitserland

breedte: 46-56-19N, lengte: 8-17-03E, hoogte: 440 m

Actueel weer

Dit bericht is 26 minuten geleden gemaakt, om 20:20 UTC
Wind 10 kt uit het zuidzuidwesten, variërend tussen het zuidzuidoosten en het zuidwesten
Temperatuur 17°C
Vochtigheid 42%
Druk 1025 hPa
Zicht 10 km of meer
Gebroken wolken op 16000 ft
Gebroken wolken op 20000 ft

METAR: LSMA 232020Z AUTO 20010KT 160V230 9999NDV BKN160 BKN200 17/04 Q1025 RMK

Tijdstip: 21:46 (20:46 UTC)


TAF: ontbreekt

Waarnemingen en weersverwachtingen van meer dan 4000 vliegvelden (METAR en TAF).

De beschikbare stations zijn de gele en rode punten op de kaart.

Ga met uw muis naar het station om de naam te zien.

Klik dan om waarnemingen en weersverwachtingen te zien.

kaart wijzigen: klik op de groene knoppen met een zwart kruis om in te zoomen, op de groene knop met een streepje om uit te zoomen of op de groene pijlen voor aangrenzende kaarten.


METAR-TAF: